Tips Updates
MLB
Players
Teams
Leagues
Draft
Boxscores
Minor Leagues
College
People
Extra Bases
Applications
About

Transactions HistoryResearch Application
Follow TBC on Twitter and Facebook


Max Scherzer - Activated from DL [2019-08-22]
The Transactions History Research Application will output a maximum of 100 transactions based on the criteria selected. The default view is for most recent transactions related to either Major Leaguers or parent MLB teams.

You can get all roster movement since 2012 from the Data Store


Applications Main -- Transactions Research -- Birthdays -- Deaths -- Injuries/DL -- Free Agents -- Daily Baseball -- About Transactions Data

Transactions Filters

TopReset Filters
Date RangeTranx TypeOrganizationsMLB-RelatedPosition
 
Player Tranx Notes Age Range High Level High School/College Region

Transactions Research Results

Top
DatePlayer NameOrgPosPrior TeamCurrent TeamStatusTransaction DescriptionHt Wt B-T BornDate Age Place HiLvlStat YearsMLB Years
2019-08-22Jeff McNeilNYN2BNew York MetsSyracuse (AAA)DL-10Assigned to Syracuse (AAA) for rehab6-1 150 L-R 1992-04-08 27.137Santa Barbara,California MLB2011-20192018-2019
2019-08-22Christin StewartDETC-1BToledo (AAA)Toledo (AAA)MinorsActivated from DL6-0 215 L-R 1993-12-10 25.256Lawrenceville,Georgia MLB2013-20192018-2019
2019-08-22Dwight SmithBALOFToronto Blue JaysNorfolk (AAA)MinorsActivated from DL5-11 180 L-R 1992-10-26 26.301Peachtree City,Georgia MLB2012-20192017-2019
2019-08-22Chris FlexenNYNPSyracuse (AAA)New York MetsActiveRecalled from Syracuse (AAA)6-3 215 R-R 1994-07-01 25.053Newark,California MLB2012-20192017-2019
2019-08-22Austin AdamsSEARPSeattle MarinersTacoma (AAA)DL-10Assigned to Tacoma (AAA) for rehab6-2 180 R-R 1991-05-05 28.110Tampa,Florida MLB2010-20192017-2019
2019-08-22Tyler MahleCINPLouisville (AAA)Louisville (AAA)MinorsActivated from DL6-2 175 R-R 1994-09-29 24.328Westminster,California MLB2013-20192017-2019
2019-08-22Ken GilesTORRPToronto Blue JaysToronto Blue JaysPaternityPlaced on paternity leave list6-2 188 R-R 1990-09-20 28.337Albuquerque,New Mexico MLB2010-20192014-2019
2019-08-22Jordan RomanoTORPBuffalo (AAA)Toronto Blue JaysActiveRecalled from Buffalo (AAA)6-6 200 R-R 1993-04-21 26.124Markham,Ontario MLB2013-20192019-2019
2019-08-22Jesse WinkerCINOF Cincinnati RedsCincinnati RedsDL-10Upper back tightness6-3 200 L-L 1993-08-17 26.006Windermere,Florida MLB2012-20192017-2019
2019-08-22Brady Rodgers-PRound Rock (AAA)Free AgentReleased by Astros6-2 175 R-R 1990-09-17 28.340Houston,Texas MLB2010-20192016-2019
2019-08-22Adalberto MejiaANAPLos Angeles AngelsSalt Lake (AAA)MinorsOutrighted to minors6-3 195 L-L 1993-06-20 26.064Bonao,Dom Rep MLB2011-20192016-2019
2019-08-22Avisail GarciaTBARFTampa Bay RaysDurham (AAA)DL-10Assigned to Durham (AAA) for rehab6-3 190 R-R 1991-06-12 28.072Anaco Edo,Venezuela MLB2009-20192012-2019
2019-08-22Ruben TejadaNYNSSNew York MetsNew York MetsDFADesignated for Assignment5-11 162 R-R 1989-10-27 29.300Veraguas,Panama MLB2007-20192010-2019
2019-08-22Austin RileyATL3BAtlanta BravesRome (A)DL-10Assigned to Rome (A) for rehab6-2 230 R-R 1997-04-02 22.143Southaven,Mississippi MLB2015-20192019-2019
2019-08-22Dansby SwansonATLSSAtlanta BravesRome (A)DL-10Assigned to Rome (A) for rehab6-0 170 R-R 1994-02-11 25.193Marietta,Georgia MLB2013-20192016-2019
2019-08-22Yoan MoncadaCHA2BCharlotte (AAA)Chicago White SoxActiveActivated from DL6-2 205 B-R 1995-05-27 24.088Abreus,Cuba MLB2015-20192016-2019
2019-08-22Jake NewberryKCAP Kansas City RoyalsKansas City RoyalsDL-10Right shoulder inflammation6-2 195 R-R 1994-11-20 24.276San Diego,California MLB2012-20192018-2019
2019-08-22Francisco Cervelli-CIndianapolis (AAA)Free AgentReleased by Pirates6-1 175 B-R 1986-03-06 33.170Valencia,Venezuela MLB2005-20192008-2019
2019-08-22Kyle ZimmerKCAPOmaha (AAA)Kansas City RoyalsActiveRecalled from Omaha (AAA)6-3 185 R-R 1991-09-13 27.345La Jolla,California MLB2010-20192019-2019
2019-08-22Kyle FreelandCOLSPColorado RockiesColorado RockiesDL-10Left groin strain6-3 170 L-L 1993-05-14 26.101Denver,Colorado MLB2012-20192017-2019
2019-08-22Wes ParsonsCOLPCarolina (A+)Colorado RockiesActiveRecalled from Albuquerque (AAA)6-5 190 R-R 1992-09-06 26.351Clarksville,Tennessee MLB2013-20192018-2019
2019-08-22Junior FernandezSLNPSt. Louis CardinalsMemphis (AAA)MinorsAssigned to Memphis (AAA)6-1 180 R-R 1997-03-02 22.174Santo Domingo,Dom Rep MLB2014-20192019-2019
2019-08-22Dominic LeoneSLNRPMemphis (AAA)St. Louis CardinalsActiveRecalled from Memphis (AAA)5-10 175 R-R 1991-10-26 27.302Norwich,Connecticut MLB2010-20192014-2019
2019-08-22Brady RodgersHOUPRound Rock (AAA)Round Rock (AAA)DFADesignated for Assignment6-2 175 R-R 1990-09-17 28.340Houston,Texas MLB2010-20192016-2019
2019-08-22Ryan PresslyHOURPHouston AstrosHouston AstrosDL-10Right knee arthroscopic surgery6-3 175 R-R 1988-12-15 30.251Dallas,Texas MLB2008-20192013-2019
DatePlayer NameOrgPosPrior TeamCurrent TeamStatusTransaction DescriptionHt Wt B-T BornDate Age Place HiLvlStat YearsMLB Years
2019-08-22Jack MayfieldHOUSS-2BHouston AstrosRound Rock (AAA)MinorsAssigned to Round Rock (AAA)5-10 167 R-R 1990-09-30 28.327Del Rio,Texas MLB2010-20192019-2019
2019-08-22Joe BiaginiHOURPRound Rock (AAA)Houston AstrosActiveRecalled from Round Rock (AAA)6-4 215 R-R 1990-05-29 29.086Menlo Park,California MLB2009-20192016-2019
2019-08-22Abraham ToroHOU3BRound Rock (AAA)Houston AstrosActiveContract purchased from minors6-0 190 B-R 1996-12-20 22.246Greenfield Park,Quebec AAA2016-2019-
2019-08-22Max ScherzerWASSPWashington NationalsWashington NationalsActiveActivated from DL6-3 190 R-R 1984-07-27 35.027St. Louis,Missouri MLB2004-20192008-2019
2019-08-22Brian DozierWAS2BNew Britain (AA)Washington NationalsActiveReinstated to active roster5-11 185 R-R 1987-05-15 32.100Fulton,Mississippi MLB2006-20192012-2019
2019-08-22Kyle McgowinWASRPWashington NationalsHarrisburg (AA)MinorsAssigned to Harrisburg (AA)6-3 180 R-R 1991-11-27 27.270Sag Harbor,New York MLB2011-20192018-2019
2019-08-22Adrian SanchezWAS2BPotomac (A+)Harrisburg (AA)MinorsAssigned to Harrisburg (AA)6-0 160 B-R 1990-08-16 29.007Maracaibo,Venezuela MLB2009-20192017-2019
2019-08-21Aaron SlegersTBAPDurham (AAA)Tampa Bay RaysActiveContract purchased from minors6-10 245 R-R 1992-09-04 26.353Scottsdale,Arizona MLB2011-20192017-2018
2019-08-21Hoby MilnerTBAPTampa Bay RaysDurham (AAA)MinorsAssigned to Durham (AAA)6-3 165 L-L 1991-01-13 28.222Dallas,Texas MLB2010-20192017-2019
2019-08-21Travis JankowskiSDNLFSan Diego PadresEl Paso (AAA)MinorsAssigned to El Paso (AAA)6-2 180 R-R 1991-06-15 28.069Lancaster,Pennsylvania MLB2010-20192015-2019
2019-08-21Jon GrayCOLSPColorado RockiesColorado RockiesDL-60Left foot fracture6-5 245 R-R 1991-11-05 27.292Chandler,Oklahoma MLB2011-20192015-2019
2019-08-21Travis BergenTORPBuffalo (AAA)Buffalo (AAA)MinorsAssigned to Buffalo (AAA)6-0 195 L-L 1993-10-08 25.319McDonough,Georgia MLB2013-20192019-2019
2019-08-21Parker BridwellANAPSalt Lake (AAA)Salt Lake (AAA)DL-7Injured6-4 190 R-R 1991-08-02 28.021Hereford,Texas MLB2010-20192016-2018
2019-08-21Sean MurphyOAKCLas Vegas (AAA)Las Vegas (AAA)MinorsActivated from disabled list6-0 194 R-R 1994-10-04 24.323Dayton,Ohio AAA2014-2019-
2019-08-21Alex WilsonCHNPIowa (AAA)Iowa (AAA)RestrictedPlaced on temporarily inactive list6-1 215 R-R 1986-11-03 32.293Dhahran,Saudi Arabia MLB2006-20192013-2019
2019-08-21Rob ZastryznyLANPOklahoma City (AAA)Oklahoma City (AAA)DL-7Injured6-3 193 L-L 1992-03-26 27.150Edmonton,Alberta MLB2011-20192016-2018
2019-08-21Sam FreemanWASPFresno (AAA)Fresno (AAA)MinorsAssigned to Fresno (AAA)5-11 170 R-L 1987-06-24 32.060Houston,Texas MLB2008-20192012-2019
2019-08-21Josh TobiasBOSSSPortland (AA)Portland (AA)MinorsActivated from disabled list5-9 195 R-R 1992-11-23 26.273Tuscaloosa,Alabama AAA2012-2019-
2019-08-21Andres SotilloTORCBuffalo (AAA)New Hampshire (AA)MinorsAssigned to New Hampshire (AA)5-11 180 R-R 1993-12-28 25.238Tucupita,Venezuela AAA2012-2019-
2019-08-21Nash KnightTORIFNew Hampshire (AA)Buffalo (AAA)MinorsAssigned to Buffalo (AAA)6-1 193 B-R 1992-09-20 26.337Denton,Texas AA2012-2019-
2019-08-21Jordan HarrisonATLPMississippi (AA)Mississippi (AA)MinorsActivated from disabled list6-1 180 R-L 1991-04-09 28.136Porter,Texas AAA2010-2019-
2019-08-21Jonathan MoralesATLCMississippi (AA)Gwinnett (AAA)MinorsAssigned to Gwinnett (AAA)5-11 180 R-R 1995-01-29 24.206Arroyo,Puerto Rico AAA2014-2019-
2019-08-21Tyler MatzekATLPMississippi (AA)Gwinnett (AAA)MinorsAssigned to Gwinnett (AAA)6-3 210 L-L 1990-10-19 28.308Mission Viejo,California MLB2010-20192014-2015
2019-08-21Art WarrenSEAPArkansas (AA)Arkansas (AA)DL-7Injured6-3 210 R-R 1993-03-23 26.153Stryker,Ohio AA2012-2019-
2019-08-21Richelson PenaTEXPFrisco (AA)Frisco (AA)MinorsReinstated to active roster6-1 170 R-R 1993-09-29 25.328Valverde Mao,Dom Rep AAA2011-2019-
DatePlayer NameOrgPosPrior TeamCurrent TeamStatusTransaction DescriptionHt Wt B-T BornDate Age Place HiLvlStat YearsMLB Years
2019-08-21Ronnie DawsonHOUOFCorpus Christi (AA)Round Rock (AAA)MinorsAssigned to Round Rock (AAA)6-2 225 L-L 1995-05-19 24.096Grove City,Ohio AA2014-2019-
2019-08-21Luis VasquezLANPTulsa (AA)Oklahoma City (AAA)MinorsAssigned to Oklahoma City (AAA)6-4 156 R-R 1986-04-03 33.142San Pedro de Mac,Dom Rep AAA2007-2019-
2019-08-21Jonah HeimOAKCLas Vegas (AAA)Midland (AA)MinorsAssigned to Midland (AA)6-3 189 B-R 1995-06-27 24.057Amherst,New York AAA2013-2019-
2019-08-21Hunter FeducciaLANCRancho Cucamonga (A+)Rancho Cucamonga (A+)DL-7Injured6-2 183 L-R 1997-06-05 22.079Lake Charles,Louisiana A+2017-2019-
2019-08-21Brandon Van HornSFNIFSan Jose (A+)Sacramento (AAA)MinorsAssigned to Sacramento (AAA)6-1 150 R-R 1993-12-18 25.248Tujunga,California AAA2012-2019-
2019-08-21Kyle WilcoxSEAPModesto (A+)Arkansas (AA)MinorsAssigned to Arkansas (AA)6-3 180 R-R 1994-06-14 25.070Sandy Hook,Connecticut AA2013-2019-
2019-08-21Jeffrey PassantinoCHNPMyrtle Beach (A+)Myrtle Beach (A+)MinorsActivated from disabled list5-11 210 R-R 1995-09-25 23.333Fort Myers,Florida AAA2015-2019-
2019-08-21Kieran LovegroveBALPFrederick (A+)Frederick (A+)DL-7Injured6-4 185 R-R 1994-07-28 25.026Johannesburg,South Africa AAA2012-2019-
2019-08-21Nathan RodriguezMILCCarolina (A+)Carolina (A+)DL-7Injured5-10 185 R-R 1995-09-30 23.328Yorba Linda,California A+2016-2019-
2019-08-21Zachary ClarkMILCFCarolina (A+)Carolina (A+)MinorsActivated from disabled list6-1 194 R-R 1995-12-05 23.262Springfield,Louisiana A+2015-2019-
2019-08-21Ryan KelloggCHNP Myrtle Beach (A+)Myrtle Beach (A+)DL-7Injured6-6 230 R-L 1994-02-04 25.200Whitby,Ontario A+2013-2019-
2019-08-21Pedro CastellanosBOS1BSalem (A+)Salem (A+)DL-7Injured6-3 195 R-R 1997-12-11 21.255Carora,Venezuela A+2016-2019-
2019-08-21Michael OsinskiBOSSSPortland (AA)Salem (A+)MinorsAssigned to Salem (A+)6-2 185 R-R 1995-08-04 24.019Vestal,New York AA2015-2019-
2019-08-21Anyelo GomezBOSPSalem (A+)Portland (AA)MinorsAssigned to Portland (AA)6-1 175 R-R 1993-03-01 26.175Cotui,Dom Rep AAA2013-2019-
2019-08-21Jaison VileraNYNPSt. Lucie (A+)St. Lucie (A+)DL-7Injured6-1 200 R-R 1997-06-19 22.065Caracas,Venezuela AA2016-2019-
2019-08-21Matt WinakerNYNOFSt. Lucie (A+)St. Lucie (A+)MinorsActivated from disabled list6-1 195 L-L 1995-11-29 23.268Alamo,California A+2015-2019-
2019-08-21Michael DavisMIN3BFort Myers (A+)Fort Myers (A+)DL-7Injured6-1 185 L-R 1996-01-22 23.214Bedford,Texas AA2015-2019-
2019-08-21Micah BrownMIASSJupiter (A+)Jupiter (A+)DL-7Injured6-2 200 R-R 1996-05-09 23.106Medford,Oregon AAA2015-2019-
2019-08-21Edgar GonzalezSLNPPalm Beach (A+)Palm Beach (A+)RestrictedPlaced on temporarily inactive list6-1 200 R-R 1996-12-22 22.244Mountain View,California AAA2016-2019-
2019-08-21Kevin VicunaTORSSDunedin (A+)Buffalo (AAA)MinorsAssigned to Buffalo (AAA)6-0 140 L-R 1998-01-14 21.221Puerto La Cruz,Venezuela A+2015-2019-
2019-08-21Williams PerezSLNPGulf Coast Cardinals (Rk)Palm Beach (A+)MinorsAssigned to Palm Beach (A+)6-0 183 R-R 1991-05-21 28.094Acarigua,Venezuela MLB2010-20192015-2016
2019-08-21Hagen DannerTORCLansing (A)Lansing (A)DL-7Injured6-2 195 R-R 1998-09-30 20.327Huntington Beach,California A2017-2019-
2019-08-21Caleb SampenTBAPBowling Green (A)Bowling Green (A)DL-7Injured6-2 184 R-R 1996-07-23 23.031Brownsburg,Indiana A2016-2019-
2019-08-21Zach ScottMIA2BJupiter (A+)Clinton (A)6-0 185 L-R 1995-04-27 24.118Scottsdale,Arizona A+2014-2019-
2019-08-21Matthew LiberatoreTBAPBowling Green (A)Bowling Green (A)MinorsActivated from disabled list6-5 200 L-L 1999-11-06 19.291Glendale,Arizona A2018-2019-
DatePlayer NameOrgPosPrior TeamCurrent TeamStatusTransaction DescriptionHt Wt B-T BornDate Age Place HiLvlStat YearsMLB Years
2019-08-21Blake HuntSDNCFort Wayne (A)Fort Wayne (A)DL-7Injured6-3 180 R-R 1998-11-10 20.286Santa Ana,California A2017-2019-
2019-08-21Randy PondlerTORPLansing (A)Lansing (A)MinorsActivated from disabled list6-2 160 L-L 1996-11-08 22.288Laguna De Perlas,Nicaragua AA2016-2019-
2019-08-21Gilberto CelestinoMINOFCedar Rapids (A)Fort Myers (A+)MinorsAssigned to Fort Myers (A+)6-2 175 R-L 1999-02-13 20.191Santo Domingo,Dom Rep AA2016-2019-
2019-08-21Zach ScottMIA2BGulf Coast Marlins (Rk)Jupiter (A+)MinorsAssigned to Jupiter (A+)6-0 185 L-R 1995-04-27 24.118Scottsdale,Arizona A+2014-2019-
2019-08-21Jose LezamaSDNCTri-City (A-)Fort Wayne (A)MinorsAssigned to Fort Wayne (A)5-10 195 L-R 1998-02-19 21.185Maracay,Venezuela A-2015-2018-
2019-08-21Austin ShentonSEA3BWest Virginia (A)West Virginia (A)DL-7Injured5-11 200 L-R 1998-01-22 21.213Bellingham,Washington A2017-2019-
2019-08-21Daniel RobertTEXPHickory (A)Hickory (A)RestrictedPlaced on temporarily inactive list6-4 249 L-R 1994-08-30 24.358Hoover,Alabama A2014-2019-
2019-08-21Juan EchevarriaBALPDelmarva (A)Delmarva (A)MinorsActivated from disabled list6-3 194 R-R 1997-06-25 22.059Kissimmee,Florida A+2016-2019-
2019-08-21Yoan AybarBOSOFGreenville (A)Salem (A+)MinorsAssigned to Salem (A+)6-2 165 L-L 1997-07-03 22.051Bani,Dom Rep A2014-2019-
2019-08-21Ben BreazealeBALCDelmarva (A)Frederick (A+)MinorsAssigned to Frederick (A+)6-0 210 L-R 1994-10-21 24.306louisville,Tennessee A2014-2019-
2019-08-21Adley RutschmanBALCAberdeen (A-)Delmarva (A)MinorsAssigned to Delmarva (A)6-2 205 B-R 1998-02-06 21.198Portland,Oregon A-2017-2019-
2019-08-21Ricky VanascoTEXPSpokane (A-)Hickory (A)MinorsAssigned to Hickory (A)6-3 180 R-R 1998-10-13 20.314Morriston,Florida A-2017-2019-
2019-08-21Matt WallnerMINPElizabethton (Rk)Cedar Rapids (A)MinorsAssigned to Cedar Rapids (A)6-4 220 L-R 1997-12-12 21.254Forest Lake,Minnesota Rk2017-2019-
2019-08-21Cesar MendozaLANCOgden (Rk)Rancho Cucamonga (A+)MinorsAssigned to Rancho Cucamonga (A+)5-11 175 R-R 1997-02-28 22.176Delicias,Mexico Rk2017-2019-
2019-08-21Skyler EwingMILIF-CSan Antonio (AAA)Rocky Mountain (Rk)MinorsAssigned to Rocky Mountain (Rk)6-1 220 R-R 1992-08-22 27.001Arlington,Texas AA2012-2019-
2019-08-21Tuffy GosewischMILCRocky Mountain (Rk)San Antonio (AAA)MinorsAssigned to San Antonio (AAA)5-11 190 R-R 1983-08-17 36.006Scottsdale,Arizona MLB2002-20192013-2017
2019-08-21Duilio OchoaSDNPArizona Padres 2 (Rk)Arizona Padres 2 (Rk)MinorsActivated from disabled list6-0 180 R-R 1998-08-02 21.021Culiacan,Mexico Rk2017-2019-
2019-08-21Seth BallewANAPOrem (Rk)Arizona Angels (Rk)MinorsAssigned to Arizona Angels (Rk)5-10 189 L-L 1995-06-13 24.071Sugar Land,Texas Rk2014-2019-
2019-08-21Caleb RiccaSEAIFArizona Mariners (Rk)West Virginia (A)MinorsAssigned to West Virginia (A)5-8 160 B-R 1997-10-21 21.306Prairieville,Louisiana Rk2017-2019-
2019-08-21Blake WalstonARIPArizona Diamondbacks (Rk)Hillsboro (A-)MinorsAssigned to Hillsboro (A-)6-5 175 L-L 2001-06-28 18.056- Rk2019-2019-
2019-08-21Kelvin SmithDET3BGulf Coast Tigers (East) (Rk)Gulf Coast Tigers (East) (Rk)MinorsAssigned to Gulf Coast Tigers (East) (Rk)6-1 185 R-R 1999-10-30 19.298- A-2018-2019-
2019-08-21Francis MartesHOUPHouston AstrosGulf Coast Astros (Rk)MinorsAssigned to Gulf Coast Astros (Rk)6-0 170 R-R 1995-11-24 23.273Cotui,Dom Rep MLB2013-20182017-2017
2019-08-21Eduardo ValenciaDET1BGulf Coast Tigers (East) (Rk)Gulf Coast Tigers (East) (Rk)MinorsAssigned to Gulf Coast Tigers (East) (Rk)6-2 180 R-R 2000-01-25 19.211Valencia,Venezuela Rk2018-2019-
2019-08-21Hugo CardonaTORSSGulf Coast Blue Jays (Rk)Dunedin (A+)MinorsAssigned to Dunedin (A+)5-11 145 R-R 1999-09-05 19.353La Sabana,Dom Rep A+2017-2019-
2019-08-21Brendan WhiteDETPGulf Coast Tigers (East) (Rk)Gulf Coast Tigers (East) (Rk)MinorsAssigned to Gulf Coast Tigers (East) (Rk)5-11 165 R-R 1998-11-18 20.278Mahopac,New York Rk2017-2019-